sensor_id;sensor_type;location;lat;lon;timestamp;pressure;altitude;pressure_sealevel;temperature;humidity
72370;BME280;60343;-32.030;115.880;2023-08-08T00:00:48;101674.28;;;17.33;86.68
72370;BME280;60343;-32.030;115.880;2023-08-08T00:03:23;101688.72;;;17.40;86.83
72370;BME280;60343;-32.030;115.880;2023-08-08T00:05:57;101702.00;;;17.35;87.31
72370;BME280;60343;-32.030;115.880;2023-08-08T00:08:32;101705.84;;;17.47;87.86
72370;BME280;60343;-32.030;115.880;2023-08-08T00:11:06;101698.13;;;17.65;87.13
72370;BME280;60343;-32.030;115.880;2023-08-08T00:13:41;101694.84;;;17.76;86.49
72370;BME280;60343;-32.030;115.880;2023-08-08T00:16:22;101701.94;;;17.77;86.04
72370;BME280;60343;-32.030;115.880;2023-08-08T00:18:57;101714.09;;;17.88;85.84
72370;BME280;60343;-32.030;115.880;2023-08-08T00:21:31;101708.25;;;17.84;85.71
72370;BME280;60343;-32.030;115.880;2023-08-08T00:24:06;101709.94;;;17.85;84.38
72370;BME280;60343;-32.030;115.880;2023-08-08T00:26:41;101702.84;;;17.84;84.74
72370;BME280;60343;-32.030;115.880;2023-08-08T00:29:15;101695.09;;;17.81;85.10
72370;BME280;60343;-32.030;115.880;2023-08-08T00:31:55;101683.09;;;17.90;83.74
72370;BME280;60343;-32.030;115.880;2023-08-08T00:34:30;101679.19;;;18.06;83.68
72370;BME280;60343;-32.030;115.880;2023-08-08T00:37:04;101681.16;;;18.19;83.53
72370;BME280;60343;-32.030;115.880;2023-08-08T00:39:39;101682.28;;;18.37;83.05
72370;BME280;60343;-32.030;115.880;2023-08-08T00:42:13;101692.72;;;18.47;82.41
72370;BME280;60343;-32.030;115.880;2023-08-08T00:44:48;101684.22;;;18.50;82.63
72370;BME280;60343;-32.030;115.880;2023-08-08T00:47:35;101680.31;;;18.59;82.43
72370;BME280;60343;-32.030;115.880;2023-08-08T00:50:10;101685.16;;;18.83;80.69
72370;BME280;60343;-32.030;115.880;2023-08-08T00:52:45;101687.50;;;18.93;80.71
72370;BME280;60343;-32.030;115.880;2023-08-08T00:55:20;101689.19;;;19.01;80.92
72370;BME280;60343;-32.030;115.880;2023-08-08T00:57:55;101689.63;;;19.11;80.16
72370;BME280;60343;-32.030;115.880;2023-08-08T01:00:30;101692.13;;;19.19;79.97
72370;BME280;60343;-32.030;115.880;2023-08-08T01:03:11;101697.56;;;19.25;80.28
72370;BME280;60343;-32.030;115.880;2023-08-08T01:05:51;101684.59;;;19.27;79.88
72370;BME280;60343;-32.030;115.880;2023-08-08T01:08:32;101689.00;;;19.35;80.12
72370;BME280;60343;-32.030;115.880;2023-08-08T01:11:07;101692.97;;;19.39;80.38
72370;BME280;60343;-32.030;115.880;2023-08-08T01:13:43;101691.72;;;19.35;81.17
72370;BME280;60343;-32.030;115.880;2023-08-08T01:16:18;101693.41;;;19.36;81.85
72370;BME280;60343;-32.030;115.880;2023-08-08T01:18:59;101690.03;;;19.14;84.25
72370;BME280;60343;-32.030;115.880;2023-08-08T01:21:37;101676.66;;;19.13;85.89
72370;BME280;60343;-32.030;115.880;2023-08-08T01:24:21;101682.47;;;18.97;87.81
72370;BME280;60343;-32.030;115.880;2023-08-08T01:26:57;101680.97;;;18.74;89.78
72370;BME280;60343;-32.030;115.880;2023-08-08T01:29:35;101694.13;;;18.77;89.36
72370;BME280;60343;-32.030;115.880;2023-08-08T01:32:09;101682.41;;;18.64;91.44
72370;BME280;60343;-32.030;115.880;2023-08-08T01:34:44;101677.59;;;18.59;92.42
72370;BME280;60343;-32.030;115.880;2023-08-08T01:37:22;101676.56;;;18.60;92.53
72370;BME280;60343;-32.030;115.880;2023-08-08T01:40:06;101683.03;;;18.72;93.22
72370;BME280;60343;-32.030;115.880;2023-08-08T01:42:41;101689.56;;;18.98;93.16
72370;BME280;60343;-32.030;115.880;2023-08-08T01:45:16;101685.84;;;19.18;91.86
72370;BME280;60343;-32.030;115.880;2023-08-08T01:47:52;101678.56;;;19.25;91.79
72370;BME280;60343;-32.030;115.880;2023-08-08T01:50:27;101673.16;;;19.45;91.51
72370;BME280;60343;-32.030;115.880;2023-08-08T01:53:01;101665.41;;;19.62;90.44
72370;BME280;60343;-32.030;115.880;2023-08-08T01:55:41;101654.72;;;19.80;90.53
72370;BME280;60343;-32.030;115.880;2023-08-08T01:58:16;101666.97;;;20.16;89.04
72370;BME280;60343;-32.030;115.880;2023-08-08T02:00:50;101668.16;;;20.39;87.66
72370;BME280;60343;-32.030;115.880;2023-08-08T02:03:25;101651.06;;;20.64;86.97
72370;BME280;60343;-32.030;115.880;2023-08-08T02:06:00;101657.44;;;20.82;85.84
72370;BME280;60343;-32.030;115.880;2023-08-08T02:08:34;101664.03;;;20.99;84.50
72370;BME280;60343;-32.030;115.880;2023-08-08T02:11:14;101669.88;;;21.59;81.60
72370;BME280;60343;-32.030;115.880;2023-08-08T02:13:49;101671.94;;;22.07;79.29
72370;BME280;60343;-32.030;115.880;2023-08-08T02:16:23;101664.59;;;22.07;76.94
72370;BME280;60343;-32.030;115.880;2023-08-08T02:18:58;101667.22;;;22.14;77.55
72370;BME280;60343;-32.030;115.880;2023-08-08T02:21:32;101653.47;;;22.57;76.52
72370;BME280;60343;-32.030;115.880;2023-08-08T02:24:07;101651.16;;;22.24;76.82
72370;BME280;60343;-32.030;115.880;2023-08-08T02:26:47;101680.91;;;21.46;81.80
72370;BME280;60343;-32.030;115.880;2023-08-08T02:29:21;101665.50;;;20.71;85.18
72370;BME280;60343;-32.030;115.880;2023-08-08T02:31:55;101698.31;;;20.18;88.99
72370;BME280;60343;-32.030;115.880;2023-08-08T02:34:30;101686.50;;;19.86;91.83
72370;BME280;60343;-32.030;115.880;2023-08-08T02:37:05;101694.84;;;19.85;92.15
72370;BME280;60343;-32.030;115.880;2023-08-08T02:39:40;101688.19;;;19.81;93.09
72370;BME280;60343;-32.030;115.880;2023-08-08T02:42:21;101688.78;;;19.83;92.56
72370;BME280;60343;-32.030;115.880;2023-08-08T02:44:55;101685.16;;;20.15;93.01
72370;BME280;60343;-32.030;115.880;2023-08-08T02:47:30;101679.84;;;20.84;87.47
72370;BME280;60343;-32.030;115.880;2023-08-08T02:50:05;101685.28;;;21.47;84.30
72370;BME280;60343;-32.030;115.880;2023-08-08T02:52:39;101688.38;;;22.00;82.53
72370;BME280;60343;-32.030;115.880;2023-08-08T02:55:14;101675.81;;;22.65;80.52
72370;BME280;60343;-32.030;115.880;2023-08-08T02:57:54;101677.38;;;22.91;78.53
72370;BME280;60343;-32.030;115.880;2023-08-08T03:00:28;101685.78;;;23.31;74.67
72370;BME280;60343;-32.030;115.880;2023-08-08T03:03:03;101699.69;;;22.70;73.42
72370;BME280;60343;-32.030;115.880;2023-08-08T03:05:37;101697.22;;;21.96;72.43
72370;BME280;60343;-32.030;115.880;2023-08-08T03:08:12;101702.84;;;21.26;74.62
72370;BME280;60343;-32.030;115.880;2023-08-08T03:10:46;101703.78;;;20.69;74.45
72370;BME280;60343;-32.030;115.880;2023-08-08T03:13:21;101697.47;;;20.24;75.91
72370;BME280;60343;-32.030;115.880;2023-08-08T03:15:56;101708.47;;;19.72;79.75
72370;BME280;60343;-32.030;115.880;2023-08-08T03:18:30;101726.59;;;19.25;83.45
72370;BME280;60343;-32.030;115.880;2023-08-08T03:21:05;101706.13;;;19.16;84.98
72370;BME280;60343;-32.030;115.880;2023-08-08T03:23:39;101708.78;;;18.90;87.63
72370;BME280;60343;-32.030;115.880;2023-08-08T03:26:14;101711.63;;;18.68;89.75
72370;BME280;60343;-32.030;115.880;2023-08-08T03:28:54;101719.44;;;18.43;91.93
72370;BME280;60343;-32.030;115.880;2023-08-08T03:31:29;101721.84;;;18.32;92.94
72370;BME280;60343;-32.030;115.880;2023-08-08T03:34:03;101728.50;;;18.23;93.15
72370;BME280;60343;-32.030;115.880;2023-08-08T03:36:38;101726.44;;;18.25;94.03
72370;BME280;60343;-32.030;115.880;2023-08-08T03:39:13;101726.44;;;18.31;94.26
72370;BME280;60343;-32.030;115.880;2023-08-08T03:41:47;101713.56;;;18.40;93.89
72370;BME280;60343;-32.030;115.880;2023-08-08T03:44:27;101713.47;;;18.61;93.67
72370;BME280;60343;-32.030;115.880;2023-08-08T03:47:02;101710.19;;;18.66;93.75
72370;BME280;60343;-32.030;115.880;2023-08-08T03:49:36;101712.06;;;18.78;94.32
72370;BME280;60343;-32.030;115.880;2023-08-08T03:52:11;101699.81;;;18.96;93.96
72370;BME280;60343;-32.030;115.880;2023-08-08T03:54:45;101697.97;;;19.16;92.59
72370;BME280;60343;-32.030;115.880;2023-08-08T03:57:20;101693.84;;;19.59;91.82
72370;BME280;60343;-32.030;115.880;2023-08-08T04:00:00;101681.16;;;20.18;90.60
72370;BME280;60343;-32.030;115.880;2023-08-08T04:02:39;101682.69;;;20.65;87.10
72370;BME280;60343;-32.030;115.880;2023-08-08T04:05:13;101681.78;;;21.09;83.64
72370;BME280;60343;-32.030;115.880;2023-08-08T04:07:48;101682.41;;;21.11;81.37
72370;BME280;60343;-32.030;115.880;2023-08-08T04:10:23;101673.09;;;21.25;80.21
72370;BME280;60343;-32.030;115.880;2023-08-08T04:12:57;101673.66;;;21.33;80.38
72370;BME280;60343;-32.030;115.880;2023-08-08T04:15:37;101663.22;;;21.30;82.04
72370;BME280;60343;-32.030;115.880;2023-08-08T04:18:12;101678.94;;;21.53;77.59
72370;BME280;60343;-32.030;115.880;2023-08-08T04:20:47;101674.50;;;21.34;77.76
72370;BME280;60343;-32.030;115.880;2023-08-08T04:23:21;101687.03;;;21.04;76.29
72370;BME280;60343;-32.030;115.880;2023-08-08T04:25:56;101697.19;;;20.90;74.39
72370;BME280;60343;-32.030;115.880;2023-08-08T04:28:30;101695.56;;;20.38;72.87
72370;BME280;60343;-32.030;115.880;2023-08-08T04:31:10;101695.78;;;20.36;73.87
72370;BME280;60343;-32.030;115.880;2023-08-08T04:33:45;101687.22;;;20.26;73.65
72370;BME280;60343;-32.030;115.880;2023-08-08T04:36:19;101693.19;;;20.54;74.41
72370;BME280;60343;-32.030;115.880;2023-08-08T04:38:54;101703.09;;;20.87;73.41
72370;BME280;60343;-32.030;115.880;2023-08-08T04:41:28;101692.28;;;21.05;72.83
72370;BME280;60343;-32.030;115.880;2023-08-08T04:44:03;101710.88;;;21.15;72.37
72370;BME280;60343;-32.030;115.880;2023-08-08T04:46:43;101699.97;;;21.21;69.26
72370;BME280;60343;-32.030;115.880;2023-08-08T04:49:18;101706.50;;;21.38;70.48
72370;BME280;60343;-32.030;115.880;2023-08-08T04:51:52;101704.25;;;21.35;70.33
72370;BME280;60343;-32.030;115.880;2023-08-08T04:54:27;101706.47;;;21.45;68.98
72370;BME280;60343;-32.030;115.880;2023-08-08T04:57:01;101700.97;;;21.52;71.02
72370;BME280;60343;-32.030;115.880;2023-08-08T04:59:36;101697.59;;;21.74;68.72
72370;BME280;60343;-32.030;115.880;2023-08-08T05:02:16;101694.03;;;21.74;67.38
72370;BME280;60343;-32.030;115.880;2023-08-08T05:04:50;101699.16;;;21.64;68.19
72370;BME280;60343;-32.030;115.880;2023-08-08T05:07:25;101693.06;;;21.44;68.05
72370;BME280;60343;-32.030;115.880;2023-08-08T05:09:59;101690.97;;;21.46;69.41
72370;BME280;60343;-32.030;115.880;2023-08-08T05:12:34;101689.03;;;21.53;65.54
72370;BME280;60343;-32.030;115.880;2023-08-08T05:15:09;101708.06;;;21.28;68.74
72370;BME280;60343;-32.030;115.880;2023-08-08T05:17:49;101710.41;;;20.86;71.53
72370;BME280;60343;-32.030;115.880;2023-08-08T05:20:24;101736.75;;;20.48;73.83
72370;BME280;60343;-32.030;115.880;2023-08-08T05:22:58;101725.16;;;19.95;76.42
72370;BME280;60343;-32.030;115.880;2023-08-08T05:25:33;101713.47;;;19.81;78.91
72370;BME280;60343;-32.030;115.880;2023-08-08T05:28:07;101723.91;;;19.84;79.17
72370;BME280;60343;-32.030;115.880;2023-08-08T05:30:42;101728.72;;;19.89;76.83
72370;BME280;60343;-32.030;115.880;2023-08-08T05:33:22;101744.38;;;19.74;76.44
72370;BME280;60343;-32.030;115.880;2023-08-08T05:35:56;101736.84;;;19.36;78.59
72370;BME280;60343;-32.030;115.880;2023-08-08T05:38:31;101736.19;;;19.14;80.83
72370;BME280;60343;-32.030;115.880;2023-08-08T05:41:05;101748.94;;;19.20;80.41
72370;BME280;60343;-32.030;115.880;2023-08-08T05:43:40;101748.50;;;19.17;80.63
72370;BME280;60343;-32.030;115.880;2023-08-08T05:46:15;101754.53;;;19.12;81.30
72370;BME280;60343;-32.030;115.880;2023-08-08T05:48:55;101752.63;;;19.00;83.05
72370;BME280;60343;-32.030;115.880;2023-08-08T05:51:29;101764.34;;;19.00;82.31
72370;BME280;60343;-32.030;115.880;2023-08-08T05:54:04;101770.75;;;18.86;84.16
72370;BME280;60343;-32.030;115.880;2023-08-08T05:56:38;101762.63;;;18.93;84.35
72370;BME280;60343;-32.030;115.880;2023-08-08T05:59:13;101762.63;;;18.86;82.61
72370;BME280;60343;-32.030;115.880;2023-08-08T06:01:48;101761.16;;;18.97;83.24
72370;BME280;60343;-32.030;115.880;2023-08-08T06:04:28;101764.34;;;19.07;82.31
72370;BME280;60343;-32.030;115.880;2023-08-08T06:07:03;101766.22;;;19.13;80.76
72370;BME280;60343;-32.030;115.880;2023-08-08T06:09:37;101772.75;;;19.25;79.68
72370;BME280;60343;-32.030;115.880;2023-08-08T06:12:12;101758.34;;;19.24;78.30
72370;BME280;60343;-32.030;115.880;2023-08-08T06:14:46;101768.34;;;19.24;78.83
72370;BME280;60343;-32.030;115.880;2023-08-08T06:17:21;101766.06;;;19.27;73.17
72370;BME280;60343;-32.030;115.880;2023-08-08T06:20:01;101764.59;;;19.25;74.15
72370;BME280;60343;-32.030;115.880;2023-08-08T06:22:36;101768.81;;;19.41;71.75
72370;BME280;60343;-32.030;115.880;2023-08-08T06:25:11;101766.06;;;19.34;69.86
72370;BME280;60343;-32.030;115.880;2023-08-08T06:27:45;101769.44;;;19.36;69.53
72370;BME280;60343;-32.030;115.880;2023-08-08T06:30:20;101774.00;;;19.29;70.26
72370;BME280;60343;-32.030;115.880;2023-08-08T06:32:55;101780.66;;;19.26;69.29
72370;BME280;60343;-32.030;115.880;2023-08-08T06:35:35;101773.59;;;19.25;70.43
72370;BME280;60343;-32.030;115.880;2023-08-08T06:38:09;101780.69;;;19.33;68.98
72370;BME280;60343;-32.030;115.880;2023-08-08T06:40:44;101789.88;;;19.32;69.68
72370;BME280;60343;-32.030;115.880;2023-08-08T06:43:19;101784.44;;;19.32;69.27
72370;BME280;60343;-32.030;115.880;2023-08-08T06:45:53;101795.53;;;19.44;65.90
72370;BME280;60343;-32.030;115.880;2023-08-08T06:48:28;101806.22;;;19.52;64.14
72370;BME280;60343;-32.030;115.880;2023-08-08T06:51:08;101802.50;;;19.59;63.74
72370;BME280;60343;-32.030;115.880;2023-08-08T06:53:42;101811.47;;;19.53;62.61
72370;BME280;60343;-32.030;115.880;2023-08-08T06:56:17;101808.78;;;19.66;62.64
72370;BME280;60343;-32.030;115.880;2023-08-08T06:58:53;101811.91;;;19.70;62.45
72370;BME280;60343;-32.030;115.880;2023-08-08T07:01:28;101814.00;;;19.75;62.66
72370;BME280;60343;-32.030;115.880;2023-08-08T07:04:02;101814.44;;;19.72;64.51
72370;BME280;60343;-32.030;115.880;2023-08-08T07:06:43;101821.94;;;19.69;64.01
72370;BME280;60343;-32.030;115.880;2023-08-08T07:09:18;101834.66;;;19.62;64.59
72370;BME280;60343;-32.030;115.880;2023-08-08T07:11:53;101831.94;;;19.62;64.11
72370;BME280;60343;-32.030;115.880;2023-08-08T07:14:27;101845.47;;;19.43;66.96
72370;BME280;60343;-32.030;115.880;2023-08-08T07:17:02;101868.44;;;19.40;67.08
72370;BME280;60343;-32.030;115.880;2023-08-08T07:19:37;101878.75;;;19.04;69.63
72370;BME280;60343;-32.030;115.880;2023-08-08T07:22:17;101871.19;;;18.58;72.67
72370;BME280;60343;-32.030;115.880;2023-08-08T07:24:52;101886.25;;;18.39;73.73
72370;BME280;60343;-32.030;115.880;2023-08-08T07:27:27;101892.50;;;18.12;74.60
72370;BME280;60343;-32.030;115.880;2023-08-08T07:30:01;101893.50;;;18.11;74.71
72370;BME280;60343;-32.030;115.880;2023-08-08T07:32:36;101891.03;;;18.10;74.32
72370;BME280;60343;-32.030;115.880;2023-08-08T07:35:10;101909.78;;;18.11;74.89
72370;BME280;60343;-32.030;115.880;2023-08-08T07:37:51;101910.63;;;18.12;74.60
72370;BME280;60343;-32.030;115.880;2023-08-08T07:40:25;101909.59;;;18.13;72.97
72370;BME280;60343;-32.030;115.880;2023-08-08T07:43:00;101906.09;;;18.19;71.58
72370;BME280;60343;-32.030;115.880;2023-08-08T07:45:34;101921.59;;;18.25;69.69
72370;BME280;60343;-32.030;115.880;2023-08-08T07:48:09;101926.53;;;18.21;68.12
72370;BME280;60343;-32.030;115.880;2023-08-08T07:50:44;101922.88;;;18.08;68.64
72370;BME280;60343;-32.030;115.880;2023-08-08T07:53:23;101947.72;;;18.11;68.61
72370;BME280;60343;-32.030;115.880;2023-08-08T07:55:58;101949.78;;;17.88;71.51
72370;BME280;60343;-32.030;115.880;2023-08-08T07:58:33;101961.34;;;17.75;72.00
72370;BME280;60343;-32.030;115.880;2023-08-08T08:01:07;101971.50;;;17.58;71.94
72370;BME280;60343;-32.030;115.880;2023-08-08T08:03:42;101974.25;;;17.44;72.76
72370;BME280;60343;-32.030;115.880;2023-08-08T08:06:16;101974.31;;;17.36;74.27
72370;BME280;60343;-32.030;115.880;2023-08-08T08:08:56;101986.75;;;17.30;74.54
72370;BME280;60343;-32.030;115.880;2023-08-08T08:11:31;101979.97;;;17.20;74.20
72370;BME280;60343;-32.030;115.880;2023-08-08T08:14:05;101981.34;;;17.15;74.82
72370;BME280;60343;-32.030;115.880;2023-08-08T08:16:40;101976.03;;;17.07;75.34
72370;BME280;60343;-32.030;115.880;2023-08-08T08:19:14;101978.28;;;17.04;75.31
72370;BME280;60343;-32.030;115.880;2023-08-08T08:21:49;101984.31;;;17.06;75.66
72370;BME280;60343;-32.030;115.880;2023-08-08T08:24:29;101979.69;;;17.14;74.77
72370;BME280;60343;-32.030;115.880;2023-08-08T08:27:04;101971.84;;;17.05;76.07
72370;BME280;60343;-32.030;115.880;2023-08-08T08:29:39;101977.72;;;17.08;74.04
72370;BME280;60343;-32.030;115.880;2023-08-08T08:32:13;101968.66;;;17.01;74.60
72370;BME280;60343;-32.030;115.880;2023-08-08T08:34:48;101966.69;;;16.95;75.06
72370;BME280;60343;-32.030;115.880;2023-08-08T08:37:23;101960.53;;;17.01;74.75
72370;BME280;60343;-32.030;115.880;2023-08-08T08:40:05;101968.88;;;17.00;74.36
72370;BME280;60343;-32.030;115.880;2023-08-08T08:42:40;101973.22;;;17.01;74.26
72370;BME280;60343;-32.030;115.880;2023-08-08T08:45:15;101982.19;;;17.01;75.79
72370;BME280;60343;-32.030;115.880;2023-08-08T08:47:54;102000.00;;;17.10;74.10
72370;BME280;60343;-32.030;115.880;2023-08-08T08:50:31;102015.97;;;17.35;71.49
72370;BME280;60343;-32.030;115.880;2023-08-08T08:53:07;102018.31;;;17.38;71.63
72370;BME280;60343;-32.030;115.880;2023-08-08T08:55:48;102018.97;;;17.25;72.79
72370;BME280;60343;-32.030;115.880;2023-08-08T08:58:25;102031.44;;;16.97;73.22
72370;BME280;60343;-32.030;115.880;2023-08-08T09:01:01;102028.91;;;16.95;72.83
72370;BME280;60343;-32.030;115.880;2023-08-08T09:03:36;102033.44;;;16.80;73.77
72370;BME280;60343;-32.030;115.880;2023-08-08T09:06:12;102034.25;;;16.66;74.49
72370;BME280;60343;-32.030;115.880;2023-08-08T09:08:48;102036.22;;;16.72;72.44
72370;BME280;60343;-32.030;115.880;2023-08-08T09:11:28;102045.94;;;16.81;70.78
72370;BME280;60343;-32.030;115.880;2023-08-08T09:14:03;102045.00;;;16.74;71.75
72370;BME280;60343;-32.030;115.880;2023-08-08T09:16:37;102050.50;;;16.81;70.56
72370;BME280;60343;-32.030;115.880;2023-08-08T09:19:12;102050.16;;;16.84;70.50
72370;BME280;60343;-32.030;115.880;2023-08-08T09:21:47;102055.28;;;16.79;70.73
72370;BME280;60343;-32.030;115.880;2023-08-08T09:24:22;102059.59;;;16.65;72.41
72370;BME280;60343;-32.030;115.880;2023-08-08T09:27:02;102059.81;;;16.63;71.67
72370;BME280;60343;-32.030;115.880;2023-08-08T09:29:37;102059.56;;;16.73;69.07
72370;BME280;60343;-32.030;115.880;2023-08-08T09:32:13;102069.69;;;16.71;69.07
72370;BME280;60343;-32.030;115.880;2023-08-08T09:34:47;102081.69;;;16.91;66.66
72370;BME280;60343;-32.030;115.880;2023-08-08T09:37:22;102083.38;;;16.92;66.82
72370;BME280;60343;-32.030;115.880;2023-08-08T09:39:59;102089.50;;;16.86;67.41
72370;BME280;60343;-32.030;115.880;2023-08-08T09:42:41;102093.34;;;16.92;66.08
72370;BME280;60343;-32.030;115.880;2023-08-08T09:45:16;102095.44;;;16.90;65.88
72370;BME280;60343;-32.030;115.880;2023-08-08T09:47:51;102105.31;;;16.97;64.77
72370;BME280;60343;-32.030;115.880;2023-08-08T09:50:26;102109.88;;;16.97;66.63
72370;BME280;60343;-32.030;115.880;2023-08-08T09:53:03;102108.44;;;16.86;68.46
72370;BME280;60343;-32.030;115.880;2023-08-08T09:55:39;102109.78;;;16.67;70.06
72370;BME280;60343;-32.030;115.880;2023-08-08T09:58:20;102128.19;;;16.41;70.73
72370;BME280;60343;-32.030;115.880;2023-08-08T10:00:54;102131.72;;;16.42;70.86
72370;BME280;60343;-32.030;115.880;2023-08-08T10:03:32;102138.91;;;16.26;71.94
72370;BME280;60343;-32.030;115.880;2023-08-08T10:06:07;102152.81;;;16.15;72.59
72370;BME280;60343;-32.030;115.880;2023-08-08T10:08:41;102157.09;;;16.02;74.57
72370;BME280;60343;-32.030;115.880;2023-08-08T10:11:17;102163.66;;;16.07;74.68
72370;BME280;60343;-32.030;115.880;2023-08-08T10:14:00;102158.16;;;15.93;75.65
72370;BME280;60343;-32.030;115.880;2023-08-08T10:16:39;102164.28;;;15.78;76.44
72370;BME280;60343;-32.030;115.880;2023-08-08T10:19:48;102161.16;;;15.89;75.33
72370;BME280;60343;-32.030;115.880;2023-08-08T10:22:32;102160.16;;;15.91;74.97
72370;BME280;60343;-32.030;115.880;2023-08-08T10:25:25;102170.03;;;15.67;76.29
72370;BME280;60343;-32.030;115.880;2023-08-08T10:28:04;102166.19;;;15.54;78.12
72370;BME280;60343;-32.030;115.880;2023-08-08T10:31:00;102173.25;;;15.46;78.18
72370;BME280;60343;-32.030;115.880;2023-08-08T10:33:46;102173.59;;;15.43;78.44
72370;BME280;60343;-32.030;115.880;2023-08-08T10:36:21;102183.34;;;15.44;79.10
72370;BME280;60343;-32.030;115.880;2023-08-08T10:38:59;102184.25;;;15.53;78.98
72370;BME280;60343;-32.030;115.880;2023-08-08T10:41:33;102188.44;;;15.56;79.13
72370;BME280;60343;-32.030;115.880;2023-08-08T10:44:24;102196.38;;;15.49;79.68
72370;BME280;60343;-32.030;115.880;2023-08-08T10:47:05;102199.75;;;15.43;79.75
72370;BME280;60343;-32.030;115.880;2023-08-08T10:49:42;102199.41;;;15.38;80.14
72370;BME280;60343;-32.030;115.880;2023-08-08T10:52:17;102205.66;;;15.38;79.80
72370;BME280;60343;-32.030;115.880;2023-08-08T10:54:53;102205.81;;;15.53;77.06
72370;BME280;60343;-32.030;115.880;2023-08-08T10:57:28;102214.94;;;15.52;75.74
72370;BME280;60343;-32.030;115.880;2023-08-08T11:00:18;102211.50;;;15.82;70.56
72370;BME280;60343;-32.030;115.880;2023-08-08T11:02:59;102226.69;;;15.75;70.76
72370;BME280;60343;-32.030;115.880;2023-08-08T11:05:35;102223.66;;;15.86;69.47
72370;BME280;60343;-32.030;115.880;2023-08-08T11:08:12;102233.03;;;16.07;67.28
72370;BME280;60343;-32.030;115.880;2023-08-08T11:10:52;102231.13;;;16.23;66.57
72370;BME280;60343;-32.030;115.880;2023-08-08T11:13:27;102237.84;;;16.36;65.82
72370;BME280;60343;-32.030;115.880;2023-08-08T11:16:02;102245.13;;;16.27;66.39
72370;BME280;60343;-32.030;115.880;2023-08-08T11:18:43;102240.72;;;16.34;64.79
72370;BME280;60343;-32.030;115.880;2023-08-08T11:21:17;102249.03;;;16.24;65.08
72370;BME280;60343;-32.030;115.880;2023-08-08T11:23:51;102253.25;;;16.27;63.82
72370;BME280;60343;-32.030;115.880;2023-08-08T11:26:26;102255.47;;;16.23;64.01
72370;BME280;60343;-32.030;115.880;2023-08-08T11:29:02;102268.09;;;16.31;62.35
72370;BME280;60343;-32.030;115.880;2023-08-08T11:31:37;102265.75;;;16.20;62.56
72370;BME280;60343;-32.030;115.880;2023-08-08T11:34:17;102273.00;;;16.27;62.66
72370;BME280;60343;-32.030;115.880;2023-08-08T11:36:52;102282.59;;;16.38;63.54
72370;BME280;60343;-32.030;115.880;2023-08-08T11:39:28;102283.13;;;16.34;64.54
72370;BME280;60343;-32.030;115.880;2023-08-08T11:42:03;102281.63;;;16.23;65.93
72370;BME280;60343;-32.030;115.880;2023-08-08T11:44:39;102293.63;;;16.28;66.28
72370;BME280;60343;-32.030;115.880;2023-08-08T11:47:15;102290.25;;;16.10;66.98
72370;BME280;60343;-32.030;115.880;2023-08-08T11:49:55;102288.25;;;16.12;67.29
72370;BME280;60343;-32.030;115.880;2023-08-08T11:52:31;102295.34;;;16.05;67.91
72370;BME280;60343;-32.030;115.880;2023-08-08T11:55:07;102296.38;;;15.96;67.89
72370;BME280;60343;-32.030;115.880;2023-08-08T11:57:43;102287.94;;;15.99;67.36
72370;BME280;60343;-32.030;115.880;2023-08-08T12:00:18;102297.06;;;15.98;66.38
72370;BME280;60343;-32.030;115.880;2023-08-08T12:02:53;102295.72;;;15.94;65.89
72370;BME280;60343;-32.030;115.880;2023-08-08T12:05:37;102296.41;;;15.88;65.00
72370;BME280;60343;-32.030;115.880;2023-08-08T12:08:12;102302.78;;;15.95;62.73
72370;BME280;60343;-32.030;115.880;2023-08-08T12:10:49;102304.69;;;15.78;63.26
72370;BME280;60343;-32.030;115.880;2023-08-08T12:13:26;102312.09;;;15.93;62.08
72370;BME280;60343;-32.030;115.880;2023-08-08T12:16:04;102314.81;;;15.68;63.06
72370;BME280;60343;-32.030;115.880;2023-08-08T12:18:39;102323.75;;;15.77;62.23
72370;BME280;60343;-32.030;115.880;2023-08-08T12:21:19;102326.59;;;15.75;62.44
72370;BME280;60343;-32.030;115.880;2023-08-08T12:23:54;102332.69;;;15.77;62.97
72370;BME280;60343;-32.030;115.880;2023-08-08T12:26:28;102329.47;;;15.82;62.49
72370;BME280;60343;-32.030;115.880;2023-08-08T12:29:03;102328.47;;;15.83;63.06
72370;BME280;60343;-32.030;115.880;2023-08-08T12:31:38;102332.84;;;15.76;63.08
72370;BME280;60343;-32.030;115.880;2023-08-08T12:34:12;102339.28;;;15.59;64.53
72370;BME280;60343;-32.030;115.880;2023-08-08T12:36:53;102334.19;;;15.80;62.91
72370;BME280;60343;-32.030;115.880;2023-08-08T12:39:27;102340.28;;;15.66;64.14
72370;BME280;60343;-32.030;115.880;2023-08-08T12:42:02;102342.09;;;15.49;64.78
72370;BME280;60343;-32.030;115.880;2023-08-08T12:44:36;102343.25;;;15.46;65.09
72370;BME280;60343;-32.030;115.880;2023-08-08T12:47:11;102342.63;;;15.53;64.84
72370;BME280;60343;-32.030;115.880;2023-08-08T12:49:45;102349.22;;;15.66;63.71
72370;BME280;60343;-32.030;115.880;2023-08-08T12:52:26;102354.28;;;15.77;62.71
72370;BME280;60343;-32.030;115.880;2023-08-08T12:55:01;102351.41;;;15.71;62.76
72370;BME280;60343;-32.030;115.880;2023-08-08T12:57:36;102361.19;;;15.80;62.25
72370;BME280;60343;-32.030;115.880;2023-08-08T13:00:11;102359.50;;;15.71;63.25
72370;BME280;60343;-32.030;115.880;2023-08-08T13:02:46;102367.78;;;15.53;64.20
72370;BME280;60343;-32.030;115.880;2023-08-08T13:05:21;102368.72;;;15.36;64.83